Carmel Highlands, California
Current Conditions -  °F | °C
As of 10:54 PM on Saturday 25 Oct 2014 (Local Time) from KMRY Reporting Station
Few Clouds Few Clouds  
Wind Chill: 59°   Ceiling: Unl
Heat Index: 59°   Visibility: 10mi
Dew Point: 53°   Wind: 5mph
Humidity: 81%   Direction: 100°E
Pressure: 30.15"   Gusts: NA
Location:  36.5057°N, 121.854°W
Report Text: KMRY 260554Z AUTO 10004KT 10SM FEW031 15/12 A3015 RMK AO2 SLP221 T01500117 10206 20150 51009
Loading
Personal Weather Stations






























Interactive Weather Map
Tropical Storm Tracking
New forecast layout! Learn more

10-Day Weather Forecast

Advertisements
Track Severe Weather on mobile